Bertram, TX (78605)

10:43 PM CDT on September 01, 2015 (GMT -0500)
Crazy Lady Range | | Change Station
CLOSE
Current Station
Personal Weather Station
Location: Liberty Hill, TX
Elevation: 1043 ft
Nearby Weather Stations

Elev 1043 ft 30.74 °N, 97.98 °W | Updated 10 seconds ago

Clear
Clear
78.1 °F
Feels Like 81 °F
N
0.0
Wind Variable Wind from SSE
Gusts 6.9 mph

Today
High -- | Low -- °F
--% Chance of Precip.
Yesterday
High -- | Low -- °F
Precip. -- in
7:08 AM 7:55 PM
Waning Gibbous, 84% visible
Pressure 30.01 in
Visibility 10.0 miles
Clouds Clear
Heat Index 81 °F
Dew Point 75 °F
Humidity 89%
Rainfall 0.00 in
Snow Depth Not available.
UV 0 out of 12
Pollen 6.60 out of 12
Air Quality Not available.
Flu Activity Not available.
METAR KBMQ 020253Z AUTO VRB06KT 10SM CLR 27/17 A3006 RMK AO2 SLP161 T02670172 53021
Pressure 30.01 in
Visibility 10.0 miles
Clouds Clear
Heat Index 81 °F
Dew Point 75 °F
Humidity 89%
Rainfall 0.00 in
Snow Depth Not available.
UV 0 out of 12
Pollen 6.60 out of 12
Air Quality Not available.
Flu Activity Not available.
METAR KBMQ 020253Z AUTO VRB06KT 10SM CLR 27/17 A3006 RMK AO2 SLP161 T02670172 53021

10-Day Weather Forecast

×

Almanac

Astronomy

Sep. 01, 2015 Rise Set
Actual Time
Civil Twilight
Nautical Twilight
Astronomical Twilight
Moon
Length of Visible Light
Length of Day
Tomorrow will be .
, % of the Moon is Illuminated

Today's Extremes

State Highs State Lows

Community

WunderPhotos

Upload Photos

1,851,690 photos uploaded!

WunderBlogs® & News

Nearby

Air Quality

  Air Quality AQ Index Pollutant
Not available.

Snow Depth

Station Depth Elevation

Earthquake Activity

City Distance Mag. Time & Date
Minimum magnitude displayed is 2.5.

Coastal Water Temperatures

Place Temperature

Stations

Nearby Weather Stations

Station Location Temp. Windchill Dew Point Humidity Wind Precip. Elev Updated Type